Time;durP1;ratioP1;P1;durP2;ratioP2;P2;SDS_P1;SDS_P2;PMS_P1;PMS_P2;Temp;Humidity;BMP_temperature;BMP_pressure;BME280_temperature;BME280_humidity;BME280_pressure;Samples;Min_cycle;Max_cycle;Signal;HPM_P1;HPM_P2
2023/09/07 00:00:48;;;;;;;7.30;5.60;;;23.60;92.00;;;;;;4942522;28;20785;-74
2023/09/07 00:03:14;;;;;;;6.53;5.70;;;23.60;92.00;;;;;;4942596;28;20451;-73
2023/09/07 00:05:40;;;;;;;6.50;5.40;;;23.60;92.20;;;;;;4942917;28;20278;-74
2023/09/07 00:08:05;;;;;;;6.47;5.40;;;23.60;92.30;;;;;;4936974;28;20209;-74
2023/09/07 00:10:35;;;;;;;7.83;6.27;;;23.60;92.40;;;;;;4941969;28;20478;-76
2023/09/07 00:13:06;;;;;;;10.90;5.97;;;23.60;92.50;;;;;;4940566;28;20306;-74
2023/09/07 00:15:37;;;;;;;5.80;5.27;;;23.60;92.50;;;;;;4944584;28;20525;-74
2023/09/07 00:18:02;;;;;;;5.60;5.10;;;23.50;92.50;;;;;;4947511;28;20452;-74
2023/09/07 00:20:28;;;;;;;6.03;4.90;;;23.50;92.50;;;;;;4948079;28;20568;-73
2023/09/07 00:22:54;;;;;;;6.03;5.37;;;23.50;92.50;;;;;;4948666;28;20297;-73
2023/09/07 00:25:20;;;;;;;7.10;6.17;;;23.40;92.50;;;;;;4948976;28;20217;-74
2023/09/07 00:27:46;;;;;;;6.40;5.30;;;23.40;92.60;;;;;;4946343;28;20828;-74
2023/09/07 00:30:12;;;;;;;6.30;5.70;;;23.40;92.70;;;;;;4947685;28;20435;-74
2023/09/07 00:32:38;;;;;;;6.33;5.70;;;23.30;92.70;;;;;;4948618;28;20215;-74
2023/09/07 00:35:05;;;;;;;5.60;5.07;;;23.30;92.80;;;;;;4935755;28;20187;-74
2023/09/07 00:37:31;;;;;;;5.40;4.90;;;23.30;92.90;;;;;;4950675;28;21017;-74
2023/09/07 00:39:57;;;;;;;8.87;5.67;;;23.30;93.00;;;;;;4948182;28;20430;-74
2023/09/07 00:42:22;;;;;;;6.63;5.80;;;23.20;93.00;;;;;;4950400;28;20552;-75
2023/09/07 00:44:48;;;;;;;6.07;5.47;;;23.20;93.10;;;;;;4945849;28;20195;-75
2023/09/07 00:47:15;;;;;;;6.20;5.60;;;23.20;93.20;;;;;;4949632;28;20196;-75
2023/09/07 00:49:40;;;;;;;7.47;5.77;;;23.10;93.20;;;;;;4945314;28;20279;-74
2023/09/07 00:52:08;;;;;;;13.63;5.40;;;23.10;93.30;;;;;;4942140;28;20522;-74
2023/09/07 00:54:36;;;;;;;7.30;5.13;;;23.10;93.30;;;;;;4943554;28;20650;-74
2023/09/07 00:57:02;;;;;;;8.13;5.20;;;23.10;93.30;;;;;;4944550;28;20421;-74
2023/09/07 00:59:28;;;;;;;7.07;6.00;;;23.00;93.40;;;;;;4946993;28;20520;-74
2023/09/07 01:01:53;;;;;;;9.17;5.50;;;23.00;93.40;;;;;;4949844;28;20916;-74
2023/09/07 01:04:19;;;;;;;6.10;5.50;;;22.90;93.40;;;;;;4947293;28;20287;-74
2023/09/07 01:07:03;;;;;;;9.33;5.90;;;22.90;93.50;;;;;;4949815;28;20222;-74
2023/09/07 01:09:32;;;;;;;6.23;5.00;;;22.90;93.50;;;;;;4946395;28;20528;-74
2023/09/07 01:11:57;;;;;;;6.50;4.67;;;22.80;93.50;;;;;;4943683;28;20451;-74
2023/09/07 01:14:23;;;;;;;9.40;5.30;;;22.80;93.50;;;;;;4946507;28;20433;-74
2023/09/07 01:16:50;;;;;;;5.67;4.97;;;22.80;93.60;;;;;;4950599;28;20281;-74
2023/09/07 01:19:15;;;;;;;5.50;5.00;;;22.80;93.60;;;;;;4946774;28;20191;-74
2023/09/07 01:21:42;;;;;;;7.20;5.37;;;22.70;93.50;;;;;;4940017;28;20453;-74
2023/09/07 01:24:10;;;;;;;6.20;5.47;;;22.70;93.60;;;;;;4940452;28;20186;-74
2023/09/07 01:26:39;;;;;;;5.70;4.70;;;22.70;93.80;;;;;;4949304;28;20984;-74
2023/09/07 01:29:06;;;;;;;5.50;4.93;;;22.70;93.80;;;;;;4951047;28;20418;-74
2023/09/07 01:31:38;;;;;;;5.23;4.73;;;22.70;93.90;;;;;;4946757;28;21152;-74
2023/09/07 01:34:04;;;;;;;5.73;5.23;;;22.60;94.00;;;;;;4946237;28;20573;-74
2023/09/07 01:36:30;;;;;;;7.80;5.50;;;22.60;94.00;;;;;;4951509;28;20425;-74
2023/09/07 01:38:56;;;;;;;5.40;4.90;;;22.60;94.20;;;;;;4945155;28;20450;-74
2023/09/07 01:41:21;;;;;;;6.53;5.10;;;22.60;94.20;;;;;;4945767;28;20245;-73
2023/09/07 01:43:47;;;;;;;5.83;4.80;;;22.60;94.20;;;;;;4947886;28;20182;-73
2023/09/07 01:46:13;;;;;;;6.53;4.80;;;22.60;94.20;;;;;;4946404;28;20211;-74
2023/09/07 01:48:38;;;;;;;5.87;5.33;;;22.60;94.20;;;;;;4944938;28;20262;-74
2023/09/07 01:51:04;;;;;;;6.00;4.90;;;22.50;94.30;;;;;;4948871;28;20187;-74
2023/09/07 01:53:29;;;;;;;5.13;4.67;;;22.50;94.30;;;;;;4949100;28;20290;-74
2023/09/07 01:55:55;;;;;;;6.07;4.70;;;22.50;94.40;;;;;;4947700;28;20598;-74
2023/09/07 01:58:21;;;;;;;5.30;4.80;;;22.40;94.40;;;;;;4952448;28;20186;-74
2023/09/07 02:00:47;;;;;;;6.80;5.30;;;22.40;94.40;;;;;;4944309;28;20513;-74
2023/09/07 02:03:12;;;;;;;5.80;5.13;;;22.40;94.50;;;;;;4947722;28;20478;-74
2023/09/07 02:05:39;;;;;;;8.00;5.67;;;22.30;94.60;;;;;;4951364;28;20583;-74
2023/09/07 02:08:05;;;;;;;7.17;5.20;;;22.30;94.70;;;;;;4948096;28;20215;-74
2023/09/07 02:10:30;;;;;;;5.77;5.17;;;22.30;94.80;;;;;;4948375;28;20427;-74
2023/09/07 02:12:57;;;;;;;5.57;4.70;;;22.20;94.80;;;;;;4951857;28;20278;-74
2023/09/07 02:15:23;;;;;;;6.30;5.70;;;22.20;94.80;;;;;;4951147;28;20220;-74
2023/09/07 02:17:49;;;;;;;5.40;4.90;;;22.10;94.90;;;;;;4950079;28;20547;-74
2023/09/07 02:20:15;;;;;;;6.03;4.87;;;22.10;95.10;;;;;;4950926;28;20889;-74
2023/09/07 02:22:40;;;;;;;5.40;4.83;;;22.00;95.10;;;;;;4949342;28;20293;-74
2023/09/07 02:25:07;;;;;;;7.90;5.10;;;22.00;95.20;;;;;;4949490;28;20187;-75
2023/09/07 02:27:35;;;;;;;8.20;5.30;;;22.00;95.30;;;;;;4948269;28;20198;-74
2023/09/07 02:30:02;;;;;;;5.50;5.00;;;22.00;95.30;;;;;;4948096;28;20482;-74
2023/09/07 02:32:28;;;;;;;6.07;5.33;;;21.90;95.30;;;;;;4946298;28;20470;-74
2023/09/07 02:34:53;;;;;;;6.00;5.40;;;21.90;95.50;;;;;;4950861;28;20470;-74
2023/09/07 02:37:19;;;;;;;6.87;5.17;;;21.80;95.60;;;;;;4941051;28;20195;-74
2023/09/07 02:39:45;;;;;;;5.40;4.90;;;21.80;95.60;;;;;;4947781;28;20711;-74
2023/09/07 02:42:10;;;;;;;6.50;5.23;;;21.80;95.60;;;;;;4946133;28;20218;-74
2023/09/07 02:44:36;;;;;;;5.50;5.00;;;21.80;95.80;;;;;;4945393;28;20189;-74
2023/09/07 02:47:01;;;;;;;5.87;5.30;;;21.70;95.80;;;;;;4948358;28;20190;-74
2023/09/07 02:49:27;;;;;;;5.17;4.60;;;21.70;95.90;;;;;;4944944;28;20198;-74
2023/09/07 02:51:53;;;;;;;7.00;5.00;;;21.70;96.00;;;;;;4944968;28;20217;-74
2023/09/07 02:54:18;;;;;;;5.10;4.60;;;21.70;96.10;;;;;;4944041;28;20315;-74
2023/09/07 02:56:44;;;;;;;10.30;5.53;;;21.70;96.10;;;;;;4948178;28;20660;-74
2023/09/07 02:59:09;;;;;;;5.70;5.20;;;21.70;96.20;;;;;;4941186;28;20296;-74
2023/09/07 03:01:35;;;;;;;5.63;5.10;;;21.60;96.10;;;;;;4941749;28;21218;-74
2023/09/07 03:04:00;;;;;;;9.60;5.43;;;21.60;96.20;;;;;;4942055;28;20180;-74
2023/09/07 03:06:26;;;;;;;6.30;5.13;;;21.60;96.40;;;;;;4943268;28;20653;-75
2023/09/07 03:08:54;;;;;;;5.30;4.60;;;21.60;96.40;;;;;;4947353;28;20623;-74
2023/09/07 03:11:20;;;;;;;5.53;5.00;;;21.60;96.40;;;;;;4945299;28;20254;-74
2023/09/07 03:13:46;;;;;;;5.20;4.70;;;21.60;96.50;;;;;;4945700;28;20870;-75
2023/09/07 03:16:11;;;;;;;5.17;4.67;;;21.60;96.50;;;;;;4945113;28;20190;-74
2023/09/07 03:18:37;;;;;;;6.10;5.50;;;21.60;96.50;;;;;;4941971;28;20606;-74
2023/09/07 03:21:04;;;;;;;5.87;5.00;;;21.60;96.50;;;;;;4943357;28;20664;-74
2023/09/07 03:23:30;;;;;;;7.43;4.50;;;21.60;96.50;;;;;;4948255;28;20195;-74
2023/09/07 03:25:57;;;;;;;6.63;5.90;;;21.60;96.50;;;;;;4951560;28;20430;-74
2023/09/07 03:28:23;;;;;;;7.13;5.30;;;21.50;96.60;;;;;;4943473;28;20917;-74
2023/09/07 03:30:48;;;;;;;5.40;4.83;;;21.50;96.60;;;;;;4944469;28;20446;-74
2023/09/07 03:33:14;;;;;;;6.73;5.13;;;21.50;96.60;;;;;;4945692;28;20294;-74
2023/09/07 03:35:40;;;;;;;5.07;4.47;;;21.50;96.70;;;;;;4942080;28;20299;-74
2023/09/07 03:38:06;;;;;;;5.30;4.80;;;21.40;96.60;;;;;;4958575;28;20198;-74
2023/09/07 03:40:31;;;;;;;7.70;5.43;;;21.40;96.70;;;;;;4940260;28;20411;-74
2023/09/07 03:42:57;;;;;;;7.70;4.93;;;21.40;96.70;;;;;;4945584;28;20313;-74
2023/09/07 03:45:23;;;;;;;6.20;5.50;;;21.40;96.80;;;;;;4939229;28;20869;-74
2023/09/07 03:47:49;;;;;;;5.77;4.73;;;21.40;96.80;;;;;;4947509;28;20192;-74
2023/09/07 03:50:15;;;;;;;5.73;5.13;;;21.40;96.80;;;;;;4937542;28;20419;-74
2023/09/07 03:52:40;;;;;;;6.10;4.70;;;21.40;96.90;;;;;;4943865;28;21181;-75
2023/09/07 03:55:06;;;;;;;8.70;5.40;;;21.30;96.90;;;;;;4943722;28;20175;-75
2023/09/07 03:57:32;;;;;;;5.20;4.67;;;21.30;96.90;;;;;;4943453;28;20179;-75
2023/09/07 03:59:59;;;;;;;5.67;5.07;;;21.30;97.00;;;;;;4942648;28;20429;-75
2023/09/07 04:02:25;;;;;;;6.27;5.57;;;21.30;97.10;;;;;;4945545;28;20294;-75
2023/09/07 04:04:55;;;;;;;5.87;5.17;;;21.30;97.10;;;;;;4943568;28;21020;-75
2023/09/07 04:07:21;;;;;;;6.23;5.03;;;21.30;97.10;;;;;;4945512;28;20171;-75
2023/09/07 04:09:46;;;;;;;6.87;5.30;;;21.30;97.40;;;;;;4943395;28;20797;-75
2023/09/07 04:12:14;;;;;;;6.40;5.50;;;21.30;97.30;;;;;;4944662;28;20454;-75
2023/09/07 04:14:41;;;;;;;6.13;5.53;;;21.30;97.40;;;;;;4941379;28;20601;-75
2023/09/07 04:17:07;;;;;;;5.90;5.30;;;21.20;97.40;;;;;;4940278;28;20928;-74
2023/09/07 04:19:32;;;;;;;5.43;4.93;;;21.20;97.50;;;;;;4944189;28;20425;-74
2023/09/07 04:21:58;;;;;;;6.23;5.30;;;21.20;97.50;;;;;;4943629;28;20611;-74
2023/09/07 04:24:24;;;;;;;5.70;5.10;;;21.20;97.50;;;;;;4949554;28;20194;-74
2023/09/07 04:26:49;;;;;;;6.80;5.40;;;21.20;97.50;;;;;;4943153;28;20641;-74
2023/09/07 04:29:15;;;;;;;6.03;5.40;;;21.20;97.60;;;;;;4959425;28;20190;-75
2023/09/07 04:31:41;;;;;;;5.70;5.10;;;21.20;97.60;;;;;;4950164;28;20673;-74
2023/09/07 04:34:07;;;;;;;5.33;4.83;;;21.20;97.60;;;;;;4949090;28;20470;-74
2023/09/07 04:36:33;;;;;;;5.40;4.90;;;21.20;97.60;;;;;;4943380;28;20497;-74
2023/09/07 04:38:59;;;;;;;5.67;5.17;;;21.10;97.70;;;;;;4945847;28;20441;-74
2023/09/07 04:41:24;;;;;;;8.57;5.87;;;21.10;97.70;;;;;;4940365;28;20184;-74
2023/09/07 04:43:50;;;;;;;5.93;5.10;;;21.10;97.70;;;;;;4947044;28;20657;-74
2023/09/07 04:46:16;;;;;;;6.67;5.67;;;21.10;97.80;;;;;;4942795;28;20183;-74
2023/09/07 04:48:43;;;;;;;6.27;5.37;;;21.10;97.80;;;;;;4943824;28;20191;-74
2023/09/07 04:51:09;;;;;;;7.20;5.67;;;21.10;97.90;;;;;;4946285;28;20415;-74
2023/09/07 04:53:37;;;;;;;5.60;4.73;;;21.10;98.00;;;;;;4946887;28;20469;-74
2023/09/07 04:56:06;;;;;;;7.17;6.47;;;21.10;98.10;;;;;;4940892;28;20936;-75
2023/09/07 04:58:32;;;;;;;9.57;7.00;;;21.10;98.10;;;;;;4942405;28;20422;-74
2023/09/07 05:01:09;;;;;;;6.50;5.70;;;21.10;98.20;;;;;;4943006;28;20442;-74
2023/09/07 05:03:36;;;;;;;6.37;5.77;;;21.00;98.20;;;;;;4947533;28;20206;-74
2023/09/07 05:06:03;;;;;;;6.37;5.77;;;21.00;98.30;;;;;;4943779;28;20826;-74
2023/09/07 05:08:28;;;;;;;6.83;5.60;;;21.00;98.30;;;;;;4948634;28;20465;-74
2023/09/07 05:11:03;;;;;;;6.27;5.43;;;21.00;98.40;;;;;;4948243;28;20430;-74
2023/09/07 05:13:28;;;;;;;6.63;5.70;;;21.00;98.50;;;;;;4941959;28;20207;-74
2023/09/07 05:15:55;;;;;;;6.30;5.70;;;21.00;98.60;;;;;;4951519;28;20449;-74
2023/09/07 05:18:21;;;;;;;7.70;4.90;;;21.00;98.60;;;;;;4944755;28;20176;-74
2023/09/07 05:20:48;;;;;;;6.43;5.80;;;21.00;98.70;;;;;;4947609;28;20423;-74
2023/09/07 05:23:18;;;;;;;10.83;5.37;;;20.90;98.80;;;;;;4945490;28;20509;-74
2023/09/07 05:25:54;;;;;;;7.57;5.67;;;20.90;99.00;;;;;;4948874;28;20411;-74
2023/09/07 05:28:21;;;;;;;6.03;5.43;;;20.90;99.10;;;;;;4945961;28;20430;-74
2023/09/07 05:30:48;;;;;;;5.70;4.97;;;20.90;99.10;;;;;;4948278;28;20530;-74
2023/09/07 05:33:15;;;;;;;5.93;5.33;;;20.80;99.20;;;;;;4949393;28;20479;-74
2023/09/07 05:35:42;;;;;;;6.90;5.00;;;20.80;99.30;;;;;;4956356;28;20415;-75
2023/09/07 05:38:08;;;;;;;8.80;5.60;;;20.90;99.50;;;;;;4954244;28;20419;-74
2023/09/07 05:40:36;;;;;;;5.80;5.20;;;20.80;99.50;;;;;;4950606;28;20983;-74
2023/09/07 05:43:03;;;;;;;5.60;5.07;;;20.80;99.60;;;;;;4951504;28;20457;-74
2023/09/07 05:45:30;;;;;;;9.30;8.17;;;20.80;99.70;;;;;;4948131;28;20460;-74
2023/09/07 05:47:56;;;;;;;8.30;7.13;;;20.80;99.90;;;;;;4946072;28;20450;-74
2023/09/07 05:50:22;;;;;;;12.23;9.80;;;20.80;99.90;;;;;;4945943;28;21022;-74
2023/09/07 05:52:47;;;;;;;6.73;5.80;;;20.80;99.90;;;;;;4944855;28;20286;-74
2023/09/07 05:55:13;;;;;;;8.93;8.07;;;20.80;99.90;;;;;;4942624;28;20584;-74
2023/09/07 05:57:41;;;;;;;16.30;12.23;;;20.80;99.90;;;;;;4946280;28;20176;-74
2023/09/07 06:00:08;;;;;;;14.60;12.77;;;20.90;99.90;;;;;;4947577;28;20183;-74
2023/09/07 06:02:33;;;;;;;15.00;11.33;;;20.80;99.90;;;;;;4947365;28;20431;-74
2023/09/07 06:04:59;;;;;;;11.40;7.10;;;20.80;99.90;;;;;;4942729;28;20538;-74
2023/09/07 06:07:24;;;;;;;10.27;8.33;;;20.90;99.90;;;;;;4944750;28;20625;-74
2023/09/07 06:09:50;;;;;;;11.50;6.23;;;20.90;99.90;;;;;;4953039;28;20190;-74
2023/09/07 06:12:15;;;;;;;6.67;5.97;;;20.90;99.90;;;;;;4945607;28;20214;-74
2023/09/07 06:14:41;;;;;;;7.00;5.47;;;20.90;99.90;;;;;;4947010;28;20200;-74
2023/09/07 06:17:06;;;;;;;9.30;7.80;;;20.90;99.90;;;;;;4946412;28;20660;-74
2023/09/07 06:19:32;;;;;;;7.60;6.37;;;20.90;99.90;;;;;;4948311;28;20187;-74
2023/09/07 06:21:58;;;;;;;8.83;6.23;;;21.00;99.90;;;;;;4944791;28;20488;-74
2023/09/07 06:24:24;;;;;;;8.83;8.00;;;21.00;99.90;;;;;;4950972;28;20904;-74
2023/09/07 06:26:49;;;;;;;7.70;5.37;;;21.00;99.90;;;;;;4946067;28;20187;-74
2023/09/07 06:29:15;;;;;;;6.30;5.50;;;21.10;99.90;;;;;;4946295;28;20716;-74
2023/09/07 06:31:40;;;;;;;6.23;5.63;;;21.10;99.90;;;;;;4938368;28;20207;-74
2023/09/07 06:34:06;;;;;;;7.33;5.80;;;21.10;99.90;;;;;;4941027;28;20211;-74
2023/09/07 06:36:32;;;;;;;6.87;6.17;;;21.20;99.90;;;;;;4938796;28;20632;-74
2023/09/07 06:38:58;;;;;;;8.30;5.60;;;21.20;99.90;;;;;;4948495;28;20622;-74
2023/09/07 06:41:24;;;;;;;7.50;6.33;;;21.20;99.90;;;;;;4944340;28;20179;-74
2023/09/07 06:43:49;;;;;;;7.27;5.90;;;21.20;99.90;;;;;;4941524;28;20802;-74
2023/09/07 06:46:15;;;;;;;8.73;6.90;;;21.30;99.90;;;;;;4948504;28;20310;-74
2023/09/07 06:48:40;;;;;;;14.20;11.83;;;21.30;99.90;;;;;;4945484;28;20196;-74
2023/09/07 06:51:08;;;;;;;7.37;5.67;;;21.30;99.90;;;;;;4949261;28;20186;-74
2023/09/07 06:53:33;;;;;;;6.77;6.17;;;21.40;99.90;;;;;;4946096;28;20311;-74
2023/09/07 06:56:00;;;;;;;8.87;7.10;;;21.40;99.90;;;;;;4951426;28;20525;-74
2023/09/07 06:58:25;;;;;;;6.27;5.67;;;21.50;99.90;;;;;;4944033;28;20202;-74
2023/09/07 07:00:51;;;;;;;7.37;5.80;;;21.50;99.90;;;;;;4950194;28;20453;-74
2023/09/07 07:03:16;;;;;;;6.83;5.57;;;21.50;99.90;;;;;;4958196;28;20198;-74
2023/09/07 07:05:42;;;;;;;10.73;5.53;;;21.50;99.90;;;;;;4947796;28;20226;-74
2023/09/07 07:08:09;;;;;;;8.57;5.43;;;21.60;99.90;;;;;;4948510;28;20175;-74
2023/09/07 07:10:34;;;;;;;9.37;5.83;;;21.60;99.90;;;;;;4947229;28;20829;-74
2023/09/07 07:13:00;;;;;;;7.47;6.77;;;21.70;99.90;;;;;;4952328;28;20557;-74
2023/09/07 07:15:26;;;;;;;7.80;7.10;;;21.70;99.90;;;;;;4944156;28;20188;-74
2023/09/07 07:17:51;;;;;;;6.93;6.20;;;21.70;99.90;;;;;;4948927;28;20581;-74
2023/09/07 07:20:17;;;;;;;7.17;6.57;;;21.80;99.90;;;;;;4946942;28;20707;-74
2023/09/07 07:22:42;;;;;;;7.07;6.00;;;21.80;99.90;;;;;;4950174;28;20195;-74
2023/09/07 07:25:08;;;;;;;6.70;5.87;;;21.90;99.90;;;;;;4945472;28;20191;-74
2023/09/07 07:27:34;;;;;;;8.07;6.70;;;21.90;99.90;;;;;;4945752;28;20187;-74
2023/09/07 07:29:59;;;;;;;9.30;5.80;;;21.90;99.90;;;;;;4941992;28;20188;-74
2023/09/07 07:32:25;;;;;;;9.47;5.87;;;22.00;99.90;;;;;;4946223;28;20210;-74
2023/09/07 07:34:50;;;;;;;11.53;6.23;;;22.00;99.90;;;;;;4945562;28;20184;-74
2023/09/07 07:37:16;;;;;;;6.20;5.53;;;22.10;99.90;;;;;;4945479;28;20179;-74
2023/09/07 07:39:41;;;;;;;8.40;7.60;;;22.20;99.90;;;;;;4945672;28;20257;-74
2023/09/07 07:42:08;;;;;;;10.10;9.10;;;22.20;99.90;;;;;;4943122;28;20201;-74
2023/09/07 07:44:33;;;;;;;12.10;5.83;;;22.30;99.90;;;;;;4943846;28;20270;-74
2023/09/07 07:46:59;;;;;;;7.70;6.10;;;22.30;99.90;;;;;;4942657;28;20658;-74
2023/09/07 07:49:24;;;;;;;5.80;5.20;;;22.40;99.90;;;;;;4944354;28;20270;-74
2023/09/07 07:51:51;;;;;;;7.20;5.53;;;22.40;99.90;;;;;;4937682;28;20214;-74
2023/09/07 07:54:17;;;;;;;9.23;6.13;;;22.50;99.90;;;;;;4942170;28;20271;-74
2023/09/07 07:56:42;;;;;;;7.03;6.33;;;22.50;99.90;;;;;;4941628;28;20666;-74
2023/09/07 07:59:08;;;;;;;7.03;5.60;;;22.60;99.90;;;;;;4958194;28;20182;-73
2023/09/07 08:01:33;;;;;;;8.20;5.80;;;22.60;99.90;;;;;;4940136;28;20277;-73
2023/09/07 08:03:59;;;;;;;6.93;6.20;;;22.70;99.90;;;;;;4945483;28;20539;-73
2023/09/07 08:06:24;;;;;;;9.43;6.03;;;22.70;99.90;;;;;;4942595;28;20191;-74
2023/09/07 08:08:50;;;;;;;6.80;6.07;;;22.80;99.90;;;;;;4938050;28;20198;-74
2023/09/07 08:11:16;;;;;;;11.13;7.90;;;22.90;99.90;;;;;;4943647;28;20269;-74
2023/09/07 08:13:45;;;;;;;8.53;5.90;;;22.90;99.90;;;;;;4946216;28;20207;-74
2023/09/07 08:16:10;;;;;;;6.83;6.10;;;23.00;99.90;;;;;;4942357;28;20414;-74
2023/09/07 08:18:36;;;;;;;7.70;6.90;;;23.10;99.90;;;;;;4945173;28;20798;-74
2023/09/07 08:21:02;;;;;;;9.57;6.10;;;23.10;99.90;;;;;;4958586;28;20172;-74
2023/09/07 08:23:28;;;;;;;10.53;6.60;;;23.20;99.90;;;;;;4948985;28;20284;-73
2023/09/07 08:25:54;;;;;;;10.40;6.87;;;23.30;99.90;;;;;;4949115;28;20257;-73
2023/09/07 08:28:22;;;;;;;6.53;5.80;;;23.30;99.90;;;;;;4943923;28;20657;-73
2023/09/07 08:30:50;;;;;;;6.90;6.03;;;23.40;99.90;;;;;;4949714;28;20430;-73
2023/09/07 08:33:17;;;;;;;8.83;6.27;;;23.40;99.90;;;;;;4951008;28;20466;-73
2023/09/07 08:35:43;;;;;;;10.20;6.60;;;23.50;99.90;;;;;;4945159;28;20525;-73
2023/09/07 08:38:10;;;;;;;7.27;6.50;;;23.60;99.90;;;;;;4950378;28;20493;-73
2023/09/07 08:40:36;;;;;;;8.03;5.80;;;23.60;99.90;;;;;;4946751;28;20929;-74
2023/09/07 08:43:04;;;;;;;7.30;6.60;;;23.70;99.90;;;;;;4948314;28;20494;-74
2023/09/07 08:45:33;;;;;;;8.30;6.00;;;23.70;99.90;;;;;;4947086;28;20666;-74
2023/09/07 08:47:59;;;;;;;6.10;5.50;;;23.70;99.90;;;;;;4946466;28;20466;-74
2023/09/07 08:50:25;;;;;;;9.23;6.50;;;23.80;99.90;;;;;;4949282;28;20531;-74
2023/09/07 08:52:54;;;;;;;8.03;6.07;;;23.80;99.90;;;;;;4943885;28;21223;-74
2023/09/07 08:55:21;;;;;;;9.50;6.13;;;23.90;99.90;;;;;;4946177;28;20238;-74
2023/09/07 08:57:46;;;;;;;8.33;6.23;;;24.00;99.90;;;;;;4949350;28;20497;-74
2023/09/07 09:00:16;;;;;;;6.90;6.30;;;24.00;99.90;;;;;;4948601;28;20494;-73
2023/09/07 09:02:45;;;;;;;7.33;6.63;;;24.10;99.90;;;;;;4949427;28;20710;-73
2023/09/07 09:05:14;;;;;;;6.70;6.10;;;24.10;99.90;;;;;;4947350;28;20944;-73
2023/09/07 09:07:40;;;;;;;6.93;6.33;;;24.20;99.90;;;;;;4945185;28;20418;-73
2023/09/07 09:10:09;;;;;;;7.13;6.40;;;24.30;99.90;;;;;;4948994;28;20427;-74
2023/09/07 09:12:34;;;;;;;6.87;6.27;;;24.40;99.90;;;;;;4949741;28;20696;-73
2023/09/07 09:15:03;;;;;;;7.43;6.60;;;24.40;99.90;;;;;;4946110;28;20508;-73
2023/09/07 09:17:29;;;;;;;6.50;5.90;;;24.40;99.90;;;;;;4963311;28;20171;-73
2023/09/07 09:19:55;;;;;;;6.50;5.93;;;24.40;99.90;;;;;;4948232;28;20851;-73
2023/09/07 09:22:21;;;;;;;7.20;6.50;;;24.50;99.90;;;;;;4946709;28;20427;-73
2023/09/07 09:24:50;;;;;;;7.77;6.10;;;24.60;99.90;;;;;;4941892;28;20416;-73
2023/09/07 09:27:17;;;;;;;7.40;6.50;;;24.60;99.90;;;;;;4943557;28;20179;-73
2023/09/07 09:29:42;;;;;;;7.00;6.30;;;24.70;99.90;;;;;;4945477;28;20509;-73
2023/09/07 09:32:08;;;;;;;7.50;6.77;;;24.80;99.90;;;;;;4955372;28;20471;-73
2023/09/07 09:34:35;;;;;;;7.13;6.43;;;24.80;99.90;;;;;;4948604;28;20199;-73
2023/09/07 09:37:02;;;;;;;7.50;6.80;;;24.90;99.90;;;;;;4947659;28;20575;-73
2023/09/07 09:39:27;;;;;;;7.17;6.13;;;24.90;99.90;;;;;;4950398;28;20478;-73
2023/09/07 09:41:54;;;;;;;8.47;6.60;;;25.00;99.90;;;;;;4945505;28;21035;-73
2023/09/07 09:44:25;;;;;;;9.40;6.43;;;25.00;99.90;;;;;;4945988;28;20180;-76
2023/09/07 09:46:55;;;;;;;7.90;6.37;;;25.10;99.90;;;;;;4950218;28;20435;-74
2023/09/07 09:49:22;;;;;;;7.40;6.23;;;25.20;99.90;;;;;;4946048;28;20463;-74
2023/09/07 09:51:51;;;;;;;6.77;6.10;;;25.20;99.90;;;;;;4945662;28;20454;-74
2023/09/07 09:54:18;;;;;;;8.57;6.63;;;25.30;99.90;;;;;;4948400;28;20467;-74
2023/09/07 09:56:44;;;;;;;9.23;7.00;;;25.40;99.60;;;;;;4950666;28;20429;-74
2023/09/07 09:59:10;;;;;;;10.47;7.07;;;25.50;99.40;;;;;;4952049;28;20418;-74
2023/09/07 10:01:50;;;;;;;7.27;6.57;;;25.50;99.30;;;;;;4947629;28;20486;-73
2023/09/07 10:04:18;;;;;;;7.03;6.43;;;25.60;99.30;;;;;;4948501;28;20640;-73
2023/09/07 10:06:59;;;;;;;7.13;6.30;;;25.60;99.10;;;;;;4940891;28;20502;-74
2023/09/07 10:09:29;;;;;;;7.67;6.80;;;25.70;99.10;;;;;;4946846;28;20423;-74
2023/09/07 10:11:59;;;;;;;6.77;6.17;;;25.70;99.00;;;;;;4949071;28;20552;-73
2023/09/07 10:14:25;;;;;;;6.57;5.97;;;25.70;99.10;;;;;;4949196;28;20500;-74
2023/09/07 10:16:55;;;;;;;7.90;6.10;;;25.80;99.10;;;;;;4948829;28;20418;-74
2023/09/07 10:19:24;;;;;;;6.87;6.27;;;25.80;99.10;;;;;;4943845;28;21000;-74
2023/09/07 10:21:53;;;;;;;9.63;6.30;;;25.90;99.10;;;;;;4945385;28;20451;-74
2023/09/07 10:24:28;;;;;;;7.87;6.90;;;26.00;99.00;;;;;;4950839;28;20821;-74
2023/09/07 10:27:04;;;;;;;7.00;6.27;;;26.00;98.90;;;;;;4942274;28;20438;-74
2023/09/07 10:29:42;;;;;;;8.03;6.60;;;26.10;98.80;;;;;;4944097;28;20430;-74
2023/09/07 10:32:10;;;;;;;7.93;7.10;;;26.20;98.70;;;;;;4947166;28;20439;-73
2023/09/07 10:34:37;;;;;;;6.77;5.90;;;26.20;98.70;;;;;;4943545;28;20481;-73
2023/09/07 10:37:04;;;;;;;6.50;5.90;;;26.30;98.80;;;;;;4943297;28;20952;-73
2023/09/07 10:39:33;;;;;;;7.63;6.90;;;26.30;98.90;;;;;;4938872;28;20801;-73
2023/09/07 10:41:59;;;;;;;10.37;6.70;;;26.40;98.80;;;;;;4947782;28;21035;-74
2023/09/07 10:44:29;;;;;;;7.43;6.73;;;26.50;98.80;;;;;;4946355;28;20540;-74
2023/09/07 10:46:56;;;;;;;7.50;6.67;;;26.50;98.60;;;;;;4945567;28;20191;-75
2023/09/07 10:49:23;;;;;;;7.93;6.93;;;26.60;98.50;;;;;;4950162;28;20511;-75
2023/09/07 10:51:49;;;;;;;7.20;6.50;;;26.60;98.60;;;;;;4945750;28;20501;-75
2023/09/07 10:54:27;;;;;;;7.00;6.37;;;26.70;98.50;;;;;;4946417;28;21034;-75
2023/09/07 10:56:53;;;;;;;7.93;7.07;;;26.70;98.50;;;;;;4946302;28;20241;-74
2023/09/07 10:59:19;;;;;;;7.53;6.83;;;26.80;98.40;;;;;;4945832;28;20430;-74
2023/09/07 11:01:45;;;;;;;8.10;6.67;;;26.80;98.30;;;;;;4945494;28;20824;-74
2023/09/07 11:04:11;;;;;;;8.47;7.60;;;26.90;98.20;;;;;;4945493;28;20286;-74
2023/09/07 11:06:39;;;;;;;6.87;6.27;;;27.00;98.10;;;;;;4944724;28;20536;-74
2023/09/07 11:09:11;;;;;;;7.90;7.10;;;27.10;97.90;;;;;;5074969;27;20531;-72
2023/09/07 11:11:37;;;;;;;7.83;6.40;;;27.10;97.70;;;;;;5055142;28;20445;-73
2023/09/07 11:14:04;;;;;;;7.00;6.30;;;27.20;97.60;;;;;;5034883;28;20188;-73
2023/09/07 11:16:31;;;;;;;8.23;6.90;;;27.20;97.60;;;;;;5037716;28;20410;-73
2023/09/07 11:18:56;;;;;;;7.90;7.10;;;27.30;97.60;;;;;;5040556;28;20430;-73
2023/09/07 11:21:23;;;;;;;9.10;6.50;;;27.30;97.50;;;;;;5038204;28;20460;-74
2023/09/07 11:23:49;;;;;;;7.63;6.83;;;27.40;97.40;;;;;;5041123;28;20184;-75
2023/09/07 11:26:17;;;;;;;7.30;6.60;;;27.40;97.30;;;;;;5042743;28;20986;-75
2023/09/07 11:28:46;;;;;;;7.67;6.50;;;27.50;97.30;;;;;;5036229;28;20455;-74
2023/09/07 11:31:11;;;;;;;7.17;6.47;;;27.60;97.20;;;;;;5039987;28;20473;-72
2023/09/07 11:33:38;;;;;;;7.57;6.80;;;27.70;97.00;;;;;;5040485;28;20437;-74
2023/09/07 11:36:04;;;;;;;7.97;6.17;;;27.70;96.90;;;;;;5036882;28;20660;-75
2023/09/07 11:38:35;;;;;;;7.47;6.67;;;27.70;96.80;;;;;;5035903;28;20436;-73
2023/09/07 11:41:01;;;;;;;7.70;6.40;;;27.90;96.60;;;;;;5039106;28;20378;-73
2023/09/07 11:43:26;;;;;;;7.13;6.43;;;27.90;96.40;;;;;;5043996;28;20875;-74
2023/09/07 11:45:52;;;;;;;6.80;6.20;;;28.00;96.60;;;;;;5039157;28;20637;-74
2023/09/07 11:48:17;;;;;;;7.23;6.53;;;28.20;96.10;;;;;;5049265;28;20231;-74
2023/09/07 11:50:43;;;;;;;7.10;6.50;;;28.30;96.20;;;;;;5061577;28;20171;-74
2023/09/07 11:53:09;;;;;;;7.90;7.20;;;28.40;96.20;;;;;;5048565;28;20338;-74
2023/09/07 11:55:35;;;;;;;7.07;6.47;;;28.60;96.10;;;;;;5049179;28;20743;-74
2023/09/07 11:58:02;;;;;;;7.33;6.73;;;28.70;95.90;;;;;;5048560;28;20207;-74
2023/09/07 12:00:28;;;;;;;7.10;6.50;;;29.00;95.70;;;;;;5054916;28;20791;-74
2023/09/07 12:02:53;;;;;;;6.40;5.80;;;29.30;95.30;;;;;;5051076;28;20451;-74
2023/09/07 12:05:19;;;;;;;7.30;6.60;;;29.60;94.90;;;;;;5055427;28;20426;-74
2023/09/07 12:07:45;;;;;;;7.23;6.63;;;30.10;94.10;;;;;;5045921;28;20204;-74
2023/09/07 12:10:11;;;;;;;7.13;6.43;;;30.60;93.40;;;;;;5042016;28;20172;-74
2023/09/07 12:12:38;;;;;;;7.23;6.53;;;31.00;92.30;;;;;;5039709;28;20196;-74
2023/09/07 12:15:04;;;;;;;6.80;6.20;;;31.40;91.70;;;;;;5043031;28;20454;-74
2023/09/07 12:17:31;;;;;;;6.80;6.20;;;31.70;90.50;;;;;;5043120;28;20437;-74
2023/09/07 12:19:56;;;;;;;8.60;6.00;;;32.00;88.90;;;;;;5034608;28;20476;-73
2023/09/07 12:22:22;;;;;;;7.53;5.50;;;32.20;87.50;;;;;;5025567;28;20836;-73
2023/09/07 12:24:48;;;;;;;9.30;6.80;;;32.40;86.60;;;;;;5028900;28;20822;-73
2023/09/07 12:27:13;;;;;;;6.23;5.70;;;32.70;86.00;;;;;;5030993;28;20243;-74
2023/09/07 12:29:39;;;;;;;6.53;5.83;;;32.90;84.90;;;;;;5027054;28;20389;-73
2023/09/07 12:32:05;;;;;;;7.23;6.63;;;33.10;83.40;;;;;;5028911;28;20278;-73
2023/09/07 12:34:31;;;;;;;8.10;6.47;;;33.20;83.40;;;;;;5024937;28;20180;-74
2023/09/07 12:36:56;;;;;;;6.60;6.00;;;33.40;82.20;;;;;;5026479;28;20419;-74
2023/09/07 12:39:22;;;;;;;6.90;6.30;;;33.50;81.50;;;;;;5024326;28;20539;-74
2023/09/07 12:41:47;;;;;;;7.03;6.43;;;33.70;79.80;;;;;;5026733;28;20196;-74